sensor_id;sensor_type;location;lat;lon;timestamp;P1;durP1;ratioP1;P2;durP2;ratioP2
54458;SDS011;40368;49.350;8.152;2024-03-23T00:54:48;119;;;225;;
54458;SDS011;40368;49.350;8.152;2024-03-23T00:55:48;165;;;276;;
54458;SDS011;40368;49.350;8.152;2024-03-23T00:56:48;116;;;209;;
54458;SDS011;40368;49.350;8.152;2024-03-23T00:57:48;125;;;227;;
54458;SDS011;40368;49.350;8.152;2024-03-23T00:58:48;67;;;124;;
54458;SDS011;40368;49.350;8.152;2024-03-23T00:59:48;72;;;136;;
54458;SDS011;40368;49.350;8.152;2024-03-23T01:00:48;56;;;99;;
54458;SDS011;40368;49.350;8.152;2024-03-23T01:01:48;50;;;96;;
54458;SDS011;40368;49.350;8.152;2024-03-23T01:02:48;47;;;111;;
54458;SDS011;40368;49.350;8.152;2024-03-23T01:03:48;47;;;98;;
54458;SDS011;40368;49.350;8.152;2024-03-23T01:04:48;50;;;98;;
54458;SDS011;40368;49.350;8.152;2024-03-23T01:05:48;50;;;103;;
54458;SDS011;40368;49.350;8.152;2024-03-23T01:06:48;44;;;89;;
54458;SDS011;40368;49.350;8.152;2024-03-23T01:07:48;44;;;83;;
54458;SDS011;40368;49.350;8.152;2024-03-23T01:08:48;41;;;69;;
54458;SDS011;40368;49.350;8.152;2024-03-23T01:09:48;40;;;74;;
54458;SDS011;40368;49.350;8.152;2024-03-23T01:10:53;48;;;89;;
54458;SDS011;40368;49.350;8.152;2024-03-23T01:11:48;50;;;100;;
54458;SDS011;40368;49.350;8.152;2024-03-23T01:12:48;58;;;103;;
54458;SDS011;40368;49.350;8.152;2024-03-23T01:13:48;62;;;105;;
54458;SDS011;40368;49.350;8.152;2024-03-23T01:14:48;56;;;100;;
54458;SDS011;40368;49.350;8.152;2024-03-23T01:15:48;55;;;122;;
54458;SDS011;40368;49.350;8.152;2024-03-23T01:16:48;56;;;112;;
54458;SDS011;40368;49.350;8.152;2024-03-23T01:17:48;56;;;104;;
54458;SDS011;40368;49.350;8.152;2024-03-23T01:18:48;53;;;97;;
54458;SDS011;40368;49.350;8.152;2024-03-23T01:19:48;61;;;106;;
54458;SDS011;40368;49.350;8.152;2024-03-23T01:20:48;58;;;92;;
54458;SDS011;40368;49.350;8.152;2024-03-23T01:21:48;59;;;149;;
54458;SDS011;40368;49.350;8.152;2024-03-23T01:22:48;60;;;101;;
54458;SDS011;40368;49.350;8.152;2024-03-23T01:23:48;90;;;155;;
54458;SDS011;40368;49.350;8.152;2024-03-23T01:24:48;58;;;107;;
54458;SDS011;40368;49.350;8.152;2024-03-23T01:25:52;66;;;115;;
54458;SDS011;40368;49.350;8.152;2024-03-23T01:26:48;58;;;100;;
54458;SDS011;40368;49.350;8.152;2024-03-23T01:27:48;67;;;108;;
54458;SDS011;40368;49.350;8.152;2024-03-23T01:28:48;81;;;134;;
54458;SDS011;40368;49.350;8.152;2024-03-23T01:30:48;65;;;134;;
54458;SDS011;40368;49.350;8.152;2024-03-23T01:31:48;63;;;126;;
54458;SDS011;40368;49.350;8.152;2024-03-23T01:32:48;59;;;97;;
54458;SDS011;40368;49.350;8.152;2024-03-23T01:33:48;58;;;95;;
54458;SDS011;40368;49.350;8.152;2024-03-23T01:34:48;63;;;143;;
54458;SDS011;40368;49.350;8.152;2024-03-23T01:35:48;65;;;110;;
54458;SDS011;40368;49.350;8.152;2024-03-23T01:36:48;56;;;114;;
54458;SDS011;40368;49.350;8.152;2024-03-23T01:37:48;54;;;94;;
54458;SDS011;40368;49.350;8.152;2024-03-23T01:38:48;62;;;107;;
54458;SDS011;40368;49.350;8.152;2024-03-23T01:39:48;56;;;100;;
54458;SDS011;40368;49.350;8.152;2024-03-23T01:40:48;62;;;111;;
54458;SDS011;40368;49.350;8.152;2024-03-23T01:41:49;68;;;134;;
54458;SDS011;40368;49.350;8.152;2024-03-23T01:42:56;68;;;129;;
54458;SDS011;40368;49.350;8.152;2024-03-23T01:43:49;68;;;143;;
54458;SDS011;40368;49.350;8.152;2024-03-23T01:44:49;63;;;131;;
54458;SDS011;40368;49.350;8.152;2024-03-23T01:45:54;58;;;113;;
54458;SDS011;40368;49.350;8.152;2024-03-23T01:46:50;60;;;110;;
54458;SDS011;40368;49.350;8.152;2024-03-23T01:47:50;57;;;126;;
54458;SDS011;40368;49.350;8.152;2024-03-23T01:48:51;62;;;107;;
54458;SDS011;40368;49.350;8.152;2024-03-23T01:49:50;51;;;90;;
54458;SDS011;40368;49.350;8.152;2024-03-23T01:50:48;65;;;134;;
54458;SDS011;40368;49.350;8.152;2024-03-23T01:51:51;61;;;100;;
54458;SDS011;40368;49.350;8.152;2024-03-23T01:52:49;56;;;107;;
54458;SDS011;40368;49.350;8.152;2024-03-23T01:53:48;60;;;132;;
54458;SDS011;40368;49.350;8.152;2024-03-23T01:54:49;64;;;127;;
54458;SDS011;40368;49.350;8.152;2024-03-23T01:55:54;50;;;95;;
54458;SDS011;40368;49.350;8.152;2024-03-23T01:56:48;60;;;106;;
54458;SDS011;40368;49.350;8.152;2024-03-23T01:57:48;57;;;104;;
54458;SDS011;40368;49.350;8.152;2024-03-23T01:58:48;59;;;120;;
54458;SDS011;40368;49.350;8.152;2024-03-23T01:59:48;39;;;77;;
54458;SDS011;40368;49.350;8.152;2024-03-23T02:00:48;47;;;82;;
54458;SDS011;40368;49.350;8.152;2024-03-23T02:01:48;52;;;97;;
54458;SDS011;40368;49.350;8.152;2024-03-23T02:02:48;49;;;98;;
54458;SDS011;40368;49.350;8.152;2024-03-23T02:03:48;50;;;105;;
54458;SDS011;40368;49.350;8.152;2024-03-23T02:04:48;53;;;101;;
54458;SDS011;40368;49.350;8.152;2024-03-23T02:05:48;47;;;81;;
54458;SDS011;40368;49.350;8.152;2024-03-23T02:06:48;54;;;144;;
54458;SDS011;40368;49.350;8.152;2024-03-23T02:07:48;41;;;75;;
54458;SDS011;40368;49.350;8.152;2024-03-23T02:08:48;55;;;123;;
54458;SDS011;40368;49.350;8.152;2024-03-23T02:09:48;51;;;109;;
54458;SDS011;40368;49.350;8.152;2024-03-23T02:10:48;58;;;103;;
54458;SDS011;40368;49.350;8.152;2024-03-23T02:11:48;52;;;97;;
54458;SDS011;40368;49.350;8.152;2024-03-23T02:12:48;42;;;68;;
54458;SDS011;40368;49.350;8.152;2024-03-23T02:13:48;52;;;109;;
54458;SDS011;40368;49.350;8.152;2024-03-23T02:14:48;64;;;152;;
54458;SDS011;40368;49.350;8.152;2024-03-23T02:15:48;50;;;93;;
54458;SDS011;40368;49.350;8.152;2024-03-23T02:16:48;48;;;106;;
54458;SDS011;40368;49.350;8.152;2024-03-23T02:17:48;61;;;122;;
54458;SDS011;40368;49.350;8.152;2024-03-23T02:18:48;69;;;127;;
54458;SDS011;40368;49.350;8.152;2024-03-23T02:19:48;75;;;166;;
54458;SDS011;40368;49.350;8.152;2024-03-23T02:20:48;71;;;139;;
54458;SDS011;40368;49.350;8.152;2024-03-23T02:21:48;67;;;145;;
54458;SDS011;40368;49.350;8.152;2024-03-23T02:22:51;68;;;134;;
54458;SDS011;40368;49.350;8.152;2024-03-23T02:23:48;79;;;180;;
54458;SDS011;40368;49.350;8.152;2024-03-23T02:24:48;78;;;144;;
54458;SDS011;40368;49.350;8.152;2024-03-23T02:25:48;72;;;138;;
54458;SDS011;40368;49.350;8.152;2024-03-23T02:26:48;73;;;147;;
54458;SDS011;40368;49.350;8.152;2024-03-23T02:27:48;74;;;153;;
54458;SDS011;40368;49.350;8.152;2024-03-23T02:28:48;71;;;152;;
54458;SDS011;40368;49.350;8.152;2024-03-23T02:29:48;77;;;156;;
54458;SDS011;40368;49.350;8.152;2024-03-23T02:30:48;88;;;176;;
54458;SDS011;40368;49.350;8.152;2024-03-23T02:31:48;76;;;161;;
54458;SDS011;40368;49.350;8.152;2024-03-23T02:32:48;83;;;167;;
54458;SDS011;40368;49.350;8.152;2024-03-23T02:33:48;79;;;155;;
54458;SDS011;40368;49.350;8.152;2024-03-23T02:34:48;61;;;118;;
54458;SDS011;40368;49.350;8.152;2024-03-23T02:35:48;77;;;162;;
54458;SDS011;40368;49.350;8.152;2024-03-23T02:36:48;69;;;139;;
54458;SDS011;40368;49.350;8.152;2024-03-23T02:37:48;72;;;147;;
54458;SDS011;40368;49.350;8.152;2024-03-23T02:38:48;69;;;138;;
54458;SDS011;40368;49.350;8.152;2024-03-23T02:39:48;76;;;145;;
54458;SDS011;40368;49.350;8.152;2024-03-23T02:40:48;76;;;151;;
54458;SDS011;40368;49.350;8.152;2024-03-23T02:41:48;63;;;123;;
54458;SDS011;40368;49.350;8.152;2024-03-23T02:42:48;69;;;138;;
54458;SDS011;40368;49.350;8.152;2024-03-23T02:43:48;66;;;128;;
54458;SDS011;40368;49.350;8.152;2024-03-23T02:44:48;69;;;125;;
54458;SDS011;40368;49.350;8.152;2024-03-23T02:45:48;68;;;145;;
54458;SDS011;40368;49.350;8.152;2024-03-23T02:46:48;68;;;129;;
54458;SDS011;40368;49.350;8.152;2024-03-23T02:47:48;74;;;149;;
54458;SDS011;40368;49.350;8.152;2024-03-23T02:48:48;59;;;102;;
54458;SDS011;40368;49.350;8.152;2024-03-23T02:49:48;63;;;131;;
54458;SDS011;40368;49.350;8.152;2024-03-23T02:50:48;60;;;127;;
54458;SDS011;40368;49.350;8.152;2024-03-23T02:51:48;61;;;115;;
54458;SDS011;40368;49.350;8.152;2024-03-23T02:52:48;66;;;126;;
54458;SDS011;40368;49.350;8.152;2024-03-23T02:53:48;65;;;118;;
54458;SDS011;40368;49.350;8.152;2024-03-23T02:54:48;62;;;136;;
54458;SDS011;40368;49.350;8.152;2024-03-23T02:55:48;69;;;156;;
54458;SDS011;40368;49.350;8.152;2024-03-23T02:56:48;67;;;150;;
54458;SDS011;40368;49.350;8.152;2024-03-23T02:57:48;71;;;131;;
54458;SDS011;40368;49.350;8.152;2024-03-23T02:58:48;71;;;142;;
54458;SDS011;40368;49.350;8.152;2024-03-23T02:59:48;83;;;175;;
54458;SDS011;40368;49.350;8.152;2024-03-23T03:00:48;74;;;145;;
54458;SDS011;40368;49.350;8.152;2024-03-23T03:01:48;78;;;160;;
54458;SDS011;40368;49.350;8.152;2024-03-23T03:02:48;78;;;165;;
54458;SDS011;40368;49.350;8.152;2024-03-23T03:03:48;84;;;186;;
54458;SDS011;40368;49.350;8.152;2024-03-23T03:04:48;69;;;143;;
54458;SDS011;40368;49.350;8.152;2024-03-23T03:05:54;82;;;157;;
54458;SDS011;40368;49.350;8.152;2024-03-23T03:06:48;74;;;154;;
54458;SDS011;40368;49.350;8.152;2024-03-23T03:07:48;78;;;160;;
54458;SDS011;40368;49.350;8.152;2024-03-23T03:08:48;65;;;142;;
54458;SDS011;40368;49.350;8.152;2024-03-23T03:09:48;73;;;152;;
54458;SDS011;40368;49.350;8.152;2024-03-23T03:10:48;87;;;170;;
54458;SDS011;40368;49.350;8.152;2024-03-23T03:11:48;76;;;136;;
54458;SDS011;40368;49.350;8.152;2024-03-23T03:12:48;79;;;159;;
54458;SDS011;40368;49.350;8.152;2024-03-23T03:13:48;57;;;131;;
54458;SDS011;40368;49.350;8.152;2024-03-23T03:14:48;78;;;158;;
54458;SDS011;40368;49.350;8.152;2024-03-23T03:15:48;78;;;160;;
54458;SDS011;40368;49.350;8.152;2024-03-23T03:16:48;80;;;166;;
54458;SDS011;40368;49.350;8.152;2024-03-23T03:17:48;99;;;199;;
54458;SDS011;40368;49.350;8.152;2024-03-23T03:18:48;86;;;193;;
54458;SDS011;40368;49.350;8.152;2024-03-23T03:19:48;58;;;127;;
54458;SDS011;40368;49.350;8.152;2024-03-23T03:20:48;102;;;238;;
54458;SDS011;40368;49.350;8.152;2024-03-23T03:21:48;94;;;205;;
54458;SDS011;40368;49.350;8.152;2024-03-23T03:22:48;122;;;251;;
54458;SDS011;40368;49.350;8.152;2024-03-23T03:23:48;94;;;208;;
54458;SDS011;40368;49.350;8.152;2024-03-23T03:24:48;100;;;178;;
54458;SDS011;40368;49.350;8.152;2024-03-23T03:25:48;83;;;162;;
54458;SDS011;40368;49.350;8.152;2024-03-23T03:26:48;97;;;199;;
54458;SDS011;40368;49.350;8.152;2024-03-23T03:27:48;91;;;182;;
54458;SDS011;40368;49.350;8.152;2024-03-23T03:28:48;97;;;213;;
54458;SDS011;40368;49.350;8.152;2024-03-23T03:29:48;91;;;172;;
54458;SDS011;40368;49.350;8.152;2024-03-23T03:30:48;79;;;172;;
54458;SDS011;40368;49.350;8.152;2024-03-23T03:31:48;80;;;186;;
54458;SDS011;40368;49.350;8.152;2024-03-23T03:32:49;102;;;216;;
54458;SDS011;40368;49.350;8.152;2024-03-23T03:33:49;88;;;194;;
54458;SDS011;40368;49.350;8.152;2024-03-23T03:34:48;90;;;187;;
54458;SDS011;40368;49.350;8.152;2024-03-23T03:35:48;79;;;172;;
54458;SDS011;40368;49.350;8.152;2024-03-23T03:36:48;89;;;171;;
54458;SDS011;40368;49.350;8.152;2024-03-23T03:37:48;89;;;187;;
54458;SDS011;40368;49.350;8.152;2024-03-23T03:38:48;96;;;208;;
54458;SDS011;40368;49.350;8.152;2024-03-23T03:39:49;94;;;190;;
54458;SDS011;40368;49.350;8.152;2024-03-23T03:40:48;79;;;188;;
54458;SDS011;40368;49.350;8.152;2024-03-23T03:41:48;81;;;162;;
54458;SDS011;40368;49.350;8.152;2024-03-23T03:42:48;82;;;173;;
54458;SDS011;40368;49.350;8.152;2024-03-23T03:43:48;92;;;169;;
54458;SDS011;40368;49.350;8.152;2024-03-23T03:44:48;84;;;174;;
54458;SDS011;40368;49.350;8.152;2024-03-23T03:45:51;81;;;169;;
54458;SDS011;40368;49.350;8.152;2024-03-23T03:46:48;74;;;158;;
54458;SDS011;40368;49.350;8.152;2024-03-23T03:47:48;90;;;179;;
54458;SDS011;40368;49.350;8.152;2024-03-23T03:48:48;65;;;129;;
54458;SDS011;40368;49.350;8.152;2024-03-23T03:49:48;63;;;150;;
54458;SDS011;40368;49.350;8.152;2024-03-23T03:50:48;75;;;175;;
54458;SDS011;40368;49.350;8.152;2024-03-23T03:51:48;73;;;149;;
54458;SDS011;40368;49.350;8.152;2024-03-23T03:52:48;70;;;149;;
54458;SDS011;40368;49.350;8.152;2024-03-23T03:53:48;79;;;157;;
54458;SDS011;40368;49.350;8.152;2024-03-23T03:54:48;63;;;140;;
54458;SDS011;40368;49.350;8.152;2024-03-23T03:55:48;69;;;142;;
54458;SDS011;40368;49.350;8.152;2024-03-23T03:56:48;71;;;145;;
54458;SDS011;40368;49.350;8.152;2024-03-23T03:57:48;64;;;130;;
54458;SDS011;40368;49.350;8.152;2024-03-23T03:58:49;65;;;122;;
54458;SDS011;40368;49.350;8.152;2024-03-23T03:59:48;57;;;120;;
54458;SDS011;40368;49.350;8.152;2024-03-23T04:00:48;62;;;134;;
54458;SDS011;40368;49.350;8.152;2024-03-23T04:01:48;64;;;136;;
54458;SDS011;40368;49.350;8.152;2024-03-23T04:02:48;63;;;125;;
54458;SDS011;40368;49.350;8.152;2024-03-23T04:03:48;64;;;122;;
54458;SDS011;40368;49.350;8.152;2024-03-23T04:04:48;66;;;119;;
54458;SDS011;40368;49.350;8.152;2024-03-23T04:05:50;68;;;139;;
54458;SDS011;40368;49.350;8.152;2024-03-23T04:06:48;64;;;136;;
54458;SDS011;40368;49.350;8.152;2024-03-23T04:07:48;63;;;123;;
54458;SDS011;40368;49.350;8.152;2024-03-23T04:08:48;76;;;146;;
54458;SDS011;40368;49.350;8.152;2024-03-23T04:09:48;61;;;119;;
54458;SDS011;40368;49.350;8.152;2024-03-23T04:10:48;69;;;132;;
54458;SDS011;40368;49.350;8.152;2024-03-23T04:11:48;62;;;130;;
54458;SDS011;40368;49.350;8.152;2024-03-23T04:12:48;63;;;126;;
54458;SDS011;40368;49.350;8.152;2024-03-23T04:13:48;59;;;132;;
54458;SDS011;40368;49.350;8.152;2024-03-23T04:14:48;61;;;121;;
54458;SDS011;40368;49.350;8.152;2024-03-23T04:15:48;67;;;129;;
54458;SDS011;40368;49.350;8.152;2024-03-23T04:16:48;61;;;111;;
54458;SDS011;40368;49.350;8.152;2024-03-23T04:17:48;63;;;125;;
54458;SDS011;40368;49.350;8.152;2024-03-23T04:18:48;64;;;117;;
54458;SDS011;40368;49.350;8.152;2024-03-23T04:19:48;69;;;134;;
54458;SDS011;40368;49.350;8.152;2024-03-23T04:20:48;57;;;107;;
54458;SDS011;40368;49.350;8.152;2024-03-23T04:21:48;66;;;125;;
54458;SDS011;40368;49.350;8.152;2024-03-23T04:22:48;71;;;145;;
54458;SDS011;40368;49.350;8.152;2024-03-23T04:23:48;53;;;115;;
54458;SDS011;40368;49.350;8.152;2024-03-23T04:24:48;63;;;117;;
54458;SDS011;40368;49.350;8.152;2024-03-23T04:25:48;55;;;122;;
54458;SDS011;40368;49.350;8.152;2024-03-23T04:26:48;66;;;142;;
54458;SDS011;40368;49.350;8.152;2024-03-23T04:27:48;60;;;107;;
54458;SDS011;40368;49.350;8.152;2024-03-23T04:28:48;51;;;108;;
54458;SDS011;40368;49.350;8.152;2024-03-23T04:29:48;44;;;90;;
54458;SDS011;40368;49.350;8.152;2024-03-23T04:30:48;50;;;91;;
54458;SDS011;40368;49.350;8.152;2024-03-23T04:31:48;46;;;108;;
54458;SDS011;40368;49.350;8.152;2024-03-23T04:32:48;55;;;114;;
54458;SDS011;40368;49.350;8.152;2024-03-23T04:33:48;43;;;84;;
54458;SDS011;40368;49.350;8.152;2024-03-23T04:34:48;51;;;98;;
54458;SDS011;40368;49.350;8.152;2024-03-23T04:35:49;46;;;82;;
54458;SDS011;40368;49.350;8.152;2024-03-23T04:36:48;45;;;81;;
54458;SDS011;40368;49.350;8.152;2024-03-23T04:37:48;41;;;89;;
54458;SDS011;40368;49.350;8.152;2024-03-23T04:38:48;43;;;77;;
54458;SDS011;40368;49.350;8.152;2024-03-23T04:39:48;37;;;75;;
54458;SDS011;40368;49.350;8.152;2024-03-23T04:40:53;44;;;80;;
54458;SDS011;40368;49.350;8.152;2024-03-23T04:41:48;45;;;84;;
54458;SDS011;40368;49.350;8.152;2024-03-23T04:42:48;38;;;85;;
54458;SDS011;40368;49.350;8.152;2024-03-23T04:43:48;38;;;88;;
54458;SDS011;40368;49.350;8.152;2024-03-23T04:44:48;40;;;75;;
54458;SDS011;40368;49.350;8.152;2024-03-23T04:45:48;38;;;74;;
54458;SDS011;40368;49.350;8.152;2024-03-23T04:46:48;40;;;71;;
54458;SDS011;40368;49.350;8.152;2024-03-23T04:47:48;38;;;77;;
54458;SDS011;40368;49.350;8.152;2024-03-23T04:48:48;36;;;68;;
54458;SDS011;40368;49.350;8.152;2024-03-23T04:49:48;34;;;70;;
54458;SDS011;40368;49.350;8.152;2024-03-23T04:50:48;34;;;65;;
54458;SDS011;40368;49.350;8.152;2024-03-23T04:51:48;37;;;87;;
54458;SDS011;40368;49.350;8.152;2024-03-23T04:52:48;30;;;64;;
54458;SDS011;40368;49.350;8.152;2024-03-23T04:53:48;33;;;74;;
54458;SDS011;40368;49.350;8.152;2024-03-23T04:54:48;35;;;69;;
54458;SDS011;40368;49.350;8.152;2024-03-23T04:55:48;33;;;60;;
54458;SDS011;40368;49.350;8.152;2024-03-23T04:56:48;27;;;54;;
54458;SDS011;40368;49.350;8.152;2024-03-23T04:57:48;27;;;47;;
54458;SDS011;40368;49.350;8.152;2024-03-23T04:58:48;25;;;54;;
54458;SDS011;40368;49.350;8.152;2024-03-23T04:59:48;26;;;46;;
54458;SDS011;40368;49.350;8.152;2024-03-23T05:00:52;34;;;75;;
54458;SDS011;40368;49.350;8.152;2024-03-23T05:01:48;25;;;40;;
54458;SDS011;40368;49.350;8.152;2024-03-23T05:02:48;29;;;66;;
54458;SDS011;40368;49.350;8.152;2024-03-23T05:03:48;27;;;50;;
54458;SDS011;40368;49.350;8.152;2024-03-23T05:04:48;27;;;63;;
54458;SDS011;40368;49.350;8.152;2024-03-23T05:05:48;23;;;34;;
54458;SDS011;40368;49.350;8.152;2024-03-23T05:06:48;21;;;41;;
54458;SDS011;40368;49.350;8.152;2024-03-23T05:07:48;24;;;54;;
54458;SDS011;40368;49.350;8.152;2024-03-23T05:08:48;22;;;38;;
54458;SDS011;40368;49.350;8.152;2024-03-23T05:09:48;24;;;41;;
54458;SDS011;40368;49.350;8.152;2024-03-23T05:10:48;22;;;40;;
54458;SDS011;40368;49.350;8.152;2024-03-23T05:11:48;21;;;34;;
54458;SDS011;40368;49.350;8.152;2024-03-23T05:12:48;19;;;32;;
54458;SDS011;40368;49.350;8.152;2024-03-23T05:13:48;24;;;36;;
54458;SDS011;40368;49.350;8.152;2024-03-23T05:14:48;20;;;41;;
54458;SDS011;40368;49.350;8.152;2024-03-23T05:15:50;24;;;41;;
54458;SDS011;40368;49.350;8.152;2024-03-23T05:16:48;20;;;29;;
54458;SDS011;40368;49.350;8.152;2024-03-23T05:17:48;24;;;39;;
54458;SDS011;40368;49.350;8.152;2024-03-23T05:18:48;20;;;37;;
54458;SDS011;40368;49.350;8.152;2024-03-23T05:19:48;21;;;28;;
54458;SDS011;40368;49.350;8.152;2024-03-23T05:20:48;21;;;50;;
54458;SDS011;40368;49.350;8.152;2024-03-23T05:21:48;21;;;36;;
54458;SDS011;40368;49.350;8.152;2024-03-23T05:22:49;19;;;31;;
54458;SDS011;40368;49.350;8.152;2024-03-23T05:23:48;19;;;34;;
54458;SDS011;40368;49.350;8.152;2024-03-23T05:24:48;20;;;39;;
54458;SDS011;40368;49.350;8.152;2024-03-23T05:25:48;16;;;29;;
54458;SDS011;40368;49.350;8.152;2024-03-23T05:26:48;16;;;25;;
54458;SDS011;40368;49.350;8.152;2024-03-23T05:27:48;19;;;36;;
54458;SDS011;40368;49.350;8.152;2024-03-23T05:28:48;17;;;31;;
54458;SDS011;40368;49.350;8.152;2024-03-23T05:29:48;20;;;38;;
54458;SDS011;40368;49.350;8.152;2024-03-23T05:30:50;17;;;34;;
54458;SDS011;40368;49.350;8.152;2024-03-23T05:31:49;17;;;34;;
54458;SDS011;40368;49.350;8.152;2024-03-23T05:32:48;20;;;43;;
54458;SDS011;40368;49.350;8.152;2024-03-23T05:33:48;17;;;37;;
54458;SDS011;40368;49.350;8.152;2024-03-23T05:34:48;17;;;30;;
54458;SDS011;40368;49.350;8.152;2024-03-23T05:35:55;17;;;29;;
54458;SDS011;40368;49.350;8.152;2024-03-23T05:36:48;19;;;34;;
54458;SDS011;40368;49.350;8.152;2024-03-23T05:37:48;16;;;23;;
54458;SDS011;40368;49.350;8.152;2024-03-23T05:38:48;17;;;25;;
54458;SDS011;40368;49.350;8.152;2024-03-23T05:39:48;17;;;31;;
54458;SDS011;40368;49.350;8.152;2024-03-23T05:40:52;16;;;28;;
54458;SDS011;40368;49.350;8.152;2024-03-23T05:41:48;14;;;19;;
54458;SDS011;40368;49.350;8.152;2024-03-23T05:42:48;13;;;30;;
54458;SDS011;40368;49.350;8.152;2024-03-23T05:43:48;13;;;38;;
54458;SDS011;40368;49.350;8.152;2024-03-23T05:44:48;11;;;19;;
54458;SDS011;40368;49.350;8.152;2024-03-23T05:45:52;13;;;32;;
54458;SDS011;40368;49.350;8.152;2024-03-23T05:46:48;11;;;31;;
54458;SDS011;40368;49.350;8.152;2024-03-23T05:47:48;13;;;21;;
54458;SDS011;40368;49.350;8.152;2024-03-23T05:48:48;11;;;17;;
54458;SDS011;40368;49.350;8.152;2024-03-23T05:49:48;11;;;27;;
54458;SDS011;40368;49.350;8.152;2024-03-23T05:50:48;11;;;18;;
54458;SDS011;40368;49.350;8.152;2024-03-23T05:51:48;9;;;13;;
54458;SDS011;40368;49.350;8.152;2024-03-23T05:52:48;10;;;14;;
54458;SDS011;40368;49.350;8.152;2024-03-23T05:53:49;9;;;19;;
54458;SDS011;40368;49.350;8.152;2024-03-23T05:54:48;8;;;20;;
54458;SDS011;40368;49.350;8.152;2024-03-23T05:55:48;7;;;8;;
54458;SDS011;40368;49.350;8.152;2024-03-23T05:56:48;9;;;18;;
54458;SDS011;40368;49.350;8.152;2024-03-23T05:57:48;10;;;29;;
54458;SDS011;40368;49.350;8.152;2024-03-23T05:58:48;9;;;12;;
54458;SDS011;40368;49.350;8.152;2024-03-23T05:59:48;9;;;12;;
54458;SDS011;40368;49.350;8.152;2024-03-23T06:00:48;9;;;13;;
54458;SDS011;40368;49.350;8.152;2024-03-23T06:01:48;9;;;16;;
54458;SDS011;40368;49.350;8.152;2024-03-23T06:02:48;7;;;18;;
54458;SDS011;40368;49.350;8.152;2024-03-23T06:03:48;7;;;10;;
54458;SDS011;40368;49.350;8.152;2024-03-23T06:04:48;7;;;14;;
54458;SDS011;40368;49.350;8.152;2024-03-23T06:05:48;8;;;16;;
54458;SDS011;40368;49.350;8.152;2024-03-23T06:06:48;8;;;18;;
54458;SDS011;40368;49.350;8.152;2024-03-23T06:07:48;11;;;16;;
54458;SDS011;40368;49.350;8.152;2024-03-23T06:08:48;7;;;14;;
54458;SDS011;40368;49.350;8.152;2024-03-23T06:09:48;7;;;8;;
54458;SDS011;40368;49.350;8.152;2024-03-23T06:10:48;8;;;9;;
54458;SDS011;40368;49.350;8.152;2024-03-23T06:11:48;8;;;20;;
54458;SDS011;40368;49.350;8.152;2024-03-23T06:12:48;7;;;16;;
54458;SDS011;40368;49.350;8.152;2024-03-23T06:13:48;7;;;8;;
54458;SDS011;40368;49.350;8.152;2024-03-23T06:14:48;8;;;13;;
54458;SDS011;40368;49.350;8.152;2024-03-23T06:15:48;7;;;15;;
54458;SDS011;40368;49.350;8.152;2024-03-23T06:16:48;7;;;7;;
54458;SDS011;40368;49.350;8.152;2024-03-23T06:17:48;7;;;7;;
54458;SDS011;40368;49.350;8.152;2024-03-23T06:18:48;7;;;7;;
54458;SDS011;40368;49.350;8.152;2024-03-23T06:19:48;7;;;11;;
54458;SDS011;40368;49.350;8.152;2024-03-23T06:20:48;7;;;17;;
54458;SDS011;40368;49.350;8.152;2024-03-23T06:21:48;6;;;6;;
54458;SDS011;40368;49.350;8.152;2024-03-23T06:22:48;6;;;6;;
54458;SDS011;40368;49.350;8.152;2024-03-23T06:23:50;6;;;7;;
54458;SDS011;40368;49.350;8.152;2024-03-23T06:24:48;6;;;10;;
54458;SDS011;40368;49.350;8.152;2024-03-23T06:25:48;6;;;7;;
54458;SDS011;40368;49.350;8.152;2024-03-23T06:26:48;7;;;10;;
54458;SDS011;40368;49.350;8.152;2024-03-23T06:27:48;8;;;8;;
54458;SDS011;40368;49.350;8.152;2024-03-23T06:28:48;5;;;5;;
54458;SDS011;40368;49.350;8.152;2024-03-23T06:29:48;6;;;6;;
54458;SDS011;40368;49.350;8.152;2024-03-23T06:30:48;5;;;5;;
54458;SDS011;40368;49.350;8.152;2024-03-23T06:31:53;6;;;6;;
54458;SDS011;40368;49.350;8.152;2024-03-23T06:32:48;6;;;6;;
54458;SDS011;40368;49.350;8.152;2024-03-23T06:33:48;6;;;10;;
54458;SDS011;40368;49.350;8.152;2024-03-23T06:34:48;5;;;7;;
54458;SDS011;40368;49.350;8.152;2024-03-23T06:35:49;5;;;5;;
54458;SDS011;40368;49.350;8.152;2024-03-23T06:36:48;5;;;5;;
54458;SDS011;40368;49.350;8.152;2024-03-23T06:37:48;4;;;8;;
54458;SDS011;40368;49.350;8.152;2024-03-23T06:38:48;5;;;6;;
54458;SDS011;40368;49.350;8.152;2024-03-23T06:39:48;5;;;5;;
54458;SDS011;40368;49.350;8.152;2024-03-23T06:40:48;5;;;8;;
54458;SDS011;40368;49.350;8.152;2024-03-23T06:41:51;4;;;4;;
54458;SDS011;40368;49.350;8.152;2024-03-23T06:42:48;4;;;4;;
54458;SDS011;40368;49.350;8.152;2024-03-23T06:43:48;5;;;7;;
54458;SDS011;40368;49.350;8.152;2024-03-23T06:44:48;6;;;6;;
54458;SDS011;40368;49.350;8.152;2024-03-23T06:45:52;5;;;5;;
54458;SDS011;40368;49.350;8.152;2024-03-23T06:46:49;5;;;7;;
54458;SDS011;40368;49.350;8.152;2024-03-23T06:47:49;4;;;4;;
54458;SDS011;40368;49.350;8.152;2024-03-23T06:48:48;5;;;5;;
54458;SDS011;40368;49.350;8.152;2024-03-23T06:49:48;4;;;4;;
54458;SDS011;40368;49.350;8.152;2024-03-23T06:50:48;6;;;6;;
54458;SDS011;40368;49.350;8.152;2024-03-23T06:51:48;5;;;7;;
54458;SDS011;40368;49.350;8.152;2024-03-23T06:52:49;6;;;11;;
54458;SDS011;40368;49.350;8.152;2024-03-23T06:53:49;7;;;12;;
54458;SDS011;40368;49.350;8.152;2024-03-23T06:54:48;6;;;8;;
54458;SDS011;40368;49.350;8.152;2024-03-23T06:55:50;6;;;7;;
54458;SDS011;40368;49.350;8.152;2024-03-23T06:56:48;7;;;7;;
54458;SDS011;40368;49.350;8.152;2024-03-23T06:57:48;5;;;6;;
54458;SDS011;40368;49.350;8.152;2024-03-23T06:58:48;5;;;8;;
54458;SDS011;40368;49.350;8.152;2024-03-23T06:59:48;6;;;7;;
54458;SDS011;40368;49.350;8.152;2024-03-23T07:00:48;5;;;11;;
54458;SDS011;40368;49.350;8.152;2024-03-23T07:01:48;5;;;10;;
54458;SDS011;40368;49.350;8.152;2024-03-23T07:02:48;4;;;4;;
54458;SDS011;40368;49.350;8.152;2024-03-23T07:03:48;4;;;4;;
54458;SDS011;40368;49.350;8.152;2024-03-23T07:04:48;5;;;17;;
54458;SDS011;40368;49.350;8.152;2024-03-23T07:05:48;5;;;5;;
54458;SDS011;40368;49.350;8.152;2024-03-23T07:06:48;5;;;5;;
54458;SDS011;40368;49.350;8.152;2024-03-23T07:07:48;7;;;8;;
54458;SDS011;40368;49.350;8.152;2024-03-23T07:08:48;6;;;9;;
54458;SDS011;40368;49.350;8.152;2024-03-23T07:09:48;4;;;8;;
54458;SDS011;40368;49.350;8.152;2024-03-23T07:10:48;5;;;5;;
54458;SDS011;40368;49.350;8.152;2024-03-23T07:11:48;6;;;9;;
54458;SDS011;40368;49.350;8.152;2024-03-23T07:12:48;6;;;6;;
54458;SDS011;40368;49.350;8.152;2024-03-23T07:13:49;5;;;12;;
54458;SDS011;40368;49.350;8.152;2024-03-23T07:14:48;7;;;15;;
54458;SDS011;40368;49.350;8.152;2024-03-23T07:15:51;6;;;13;;
54458;SDS011;40368;49.350;8.152;2024-03-23T07:16:48;6;;;6;;
54458;SDS011;40368;49.350;8.152;2024-03-23T07:17:48;5;;;6;;
54458;SDS011;40368;49.350;8.152;2024-03-23T07:18:49;8;;;26;;